sensor_id;sensor_type;location;lat;lon;timestamp;pressure;altitude;pressure_sealevel;temperature;humidity
36664;BME280;53333;51.976;20.144;2022-12-29T00:01:56;99920.03;;;6.06;61.22
36664;BME280;53333;51.976;20.144;2022-12-29T00:04:31;99919.16;;;6.05;61.32
36664;BME280;53333;51.976;20.144;2022-12-29T00:07:04;99917.31;;;6.07;61.26
36664;BME280;53333;51.976;20.144;2022-12-29T00:09:37;99925.22;;;6.09;61.12
36664;BME280;53333;51.976;20.144;2022-12-29T00:12:10;99919.88;;;6.10;61.17
36664;BME280;53333;51.976;20.144;2022-12-29T00:14:47;99921.66;;;6.10;61.27
36664;BME280;53333;51.976;20.144;2022-12-29T00:17:38;99912.78;;;6.11;61.18
36664;BME280;53333;51.976;20.144;2022-12-29T00:20:12;99918.13;;;6.09;61.19
36664;BME280;53333;51.976;20.144;2022-12-29T00:23:02;99915.53;;;6.08;61.11
36664;BME280;53333;51.976;20.144;2022-12-29T00:25:53;99912.88;;;6.08;61.28
36664;BME280;53333;51.976;20.144;2022-12-29T00:28:44;99914.66;;;6.07;61.12
36664;BME280;53333;51.976;20.144;2022-12-29T00:31:35;99902.31;;;6.06;61.30
36664;BME280;53333;51.976;20.144;2022-12-29T00:34:25;99908.56;;;6.05;61.09
36664;BME280;53333;51.976;20.144;2022-12-29T00:37:17;99905.97;;;6.04;61.19
36664;BME280;53333;51.976;20.144;2022-12-29T00:40:10;99913.13;;;6.02;61.16
36664;BME280;53333;51.976;20.144;2022-12-29T00:43:00;99901.66;;;5.99;60.98
36664;BME280;53333;51.976;20.144;2022-12-29T00:45:51;99893.66;;;6.01;61.07
36664;BME280;53333;51.976;20.144;2022-12-29T00:48:24;99892.75;;;6.02;61.11
36664;BME280;53333;51.976;20.144;2022-12-29T00:51:15;99891.00;;;6.01;61.03
36664;BME280;53333;51.976;20.144;2022-12-29T00:53:50;99893.66;;;6.01;60.99
36664;BME280;53333;51.976;20.144;2022-12-29T00:56:23;99889.34;;;5.98;60.95
36664;BME280;53333;51.976;20.144;2022-12-29T00:59:00;99892.84;;;5.99;60.97
36664;BME280;53333;51.976;20.144;2022-12-29T01:01:33;99884.84;;;6.00;60.97
36664;BME280;53333;51.976;20.144;2022-12-29T01:04:08;99881.34;;;6.00;61.00
36664;BME280;53333;51.976;20.144;2022-12-29T01:06:41;99884.81;;;6.02;60.93
36664;BME280;53333;51.976;20.144;2022-12-29T01:09:16;99883.94;;;6.02;60.91
36664;BME280;53333;51.976;20.144;2022-12-29T01:12:08;99881.34;;;6.00;60.77
36664;BME280;53333;51.976;20.144;2022-12-29T01:14:41;99871.59;;;6.00;60.71
36664;BME280;53333;51.976;20.144;2022-12-29T01:17:14;99869.84;;;5.99;60.79
36664;BME280;53333;51.976;20.144;2022-12-29T01:19:48;99867.25;;;5.98;60.71
36664;BME280;53333;51.976;20.144;2022-12-29T01:22:21;99861.94;;;5.98;60.82
36664;BME280;53333;51.976;20.144;2022-12-29T01:24:56;99854.03;;;5.96;60.67
36664;BME280;53333;51.976;20.144;2022-12-29T01:27:29;99861.13;;;5.96;60.61
36664;BME280;53333;51.976;20.144;2022-12-29T01:30:04;99847.84;;;5.96;60.68
36664;BME280;53333;51.976;20.144;2022-12-29T01:32:37;99842.56;;;5.96;60.54
36664;BME280;53333;51.976;20.144;2022-12-29T01:35:10;99850.50;;;5.96;60.58
36664;BME280;53333;51.976;20.144;2022-12-29T01:37:44;99845.72;;;6.07;60.43
36664;BME280;53333;51.976;20.144;2022-12-29T01:40:19;99846.09;;;5.96;60.52
36664;BME280;53333;51.976;20.144;2022-12-29T01:42:52;99841.75;;;5.94;60.53
36664;BME280;53333;51.976;20.144;2022-12-29T01:45:25;99844.41;;;5.94;60.46
36664;BME280;53333;51.976;20.144;2022-12-29T01:48:01;99842.59;;;5.94;60.49
36664;BME280;53333;51.976;20.144;2022-12-29T01:50:38;99841.75;;;5.94;60.46
36664;BME280;53333;51.976;20.144;2022-12-29T01:53:16;99856.72;;;5.95;60.29
36664;BME280;53333;51.976;20.144;2022-12-29T01:55:54;99840.78;;;5.96;60.39
36664;BME280;53333;51.976;20.144;2022-12-29T01:58:30;99850.44;;;5.99;60.19
36664;BME280;53333;51.976;20.144;2022-12-29T02:01:05;99850.38;;;6.00;60.09
36664;BME280;53333;51.976;20.144;2022-12-29T02:03:40;99844.22;;;6.00;60.09
36664;BME280;53333;51.976;20.144;2022-12-29T02:06:17;99840.56;;;6.03;60.02
36664;BME280;53333;51.976;20.144;2022-12-29T02:08:53;99849.34;;;6.05;60.03
36664;BME280;53333;51.976;20.144;2022-12-29T02:11:29;99848.44;;;6.06;60.00
36664;BME280;53333;51.976;20.144;2022-12-29T02:14:08;99842.16;;;6.08;60.06
36664;BME280;53333;51.976;20.144;2022-12-29T02:16:56;99842.16;;;6.08;59.92
36664;BME280;53333;51.976;20.144;2022-12-29T02:20:06;99842.06;;;6.11;59.84
36664;BME280;53333;51.976;20.144;2022-12-29T02:22:51;99844.75;;;6.10;59.82
36664;BME280;53333;51.976;20.144;2022-12-29T02:25:57;99847.25;;;6.14;59.70
36664;BME280;53333;51.976;20.144;2022-12-29T02:29:00;99840.16;;;6.15;59.66
36664;BME280;53333;51.976;20.144;2022-12-29T02:31:42;99836.66;;;6.14;59.43
36664;BME280;53333;51.976;20.144;2022-12-29T02:34:24;99829.53;;;6.15;59.37
36664;BME280;53333;51.976;20.144;2022-12-29T02:37:05;99817.13;;;6.15;59.35
36664;BME280;53333;51.976;20.144;2022-12-29T02:39:43;99807.31;;;6.19;59.25
36664;BME280;53333;51.976;20.144;2022-12-29T02:42:24;99816.97;;;6.20;59.31
36664;BME280;53333;51.976;20.144;2022-12-29T02:45:04;99798.47;;;6.18;59.34
36664;BME280;53333;51.976;20.144;2022-12-29T02:47:46;99761.34;;;6.18;59.42
36664;BME280;53333;51.976;20.144;2022-12-29T02:50:25;99781.81;;;6.15;59.42
36664;BME280;53333;51.976;20.144;2022-12-29T02:53:01;99779.28;;;6.12;59.66
36664;BME280;53333;51.976;20.144;2022-12-29T02:55:38;99783.72;;;6.11;59.67
36664;BME280;53333;51.976;20.144;2022-12-29T02:58:16;99791.72;;;6.10;59.91
36664;BME280;53333;51.976;20.144;2022-12-29T03:01:04;99805.72;;;6.13;59.89
36664;BME280;53333;51.976;20.144;2022-12-29T03:03:54;99814.59;;;6.12;59.85
36664;BME280;53333;51.976;20.144;2022-12-29T03:06:36;99818.19;;;6.11;59.89
36664;BME280;53333;51.976;20.144;2022-12-29T03:09:21;99795.19;;;6.12;59.61
36664;BME280;53333;51.976;20.144;2022-12-29T03:12:06;99783.72;;;6.11;59.80
36664;BME280;53333;51.976;20.144;2022-12-29T03:14:50;99788.13;;;6.11;59.79
36664;BME280;53333;51.976;20.144;2022-12-29T03:17:48;99782.03;;;6.09;59.85
36664;BME280;53333;51.976;20.144;2022-12-29T03:20:28;99784.69;;;6.09;59.81
36664;BME280;53333;51.976;20.144;2022-12-29T03:23:07;99785.59;;;6.08;59.75
36664;BME280;53333;51.976;20.144;2022-12-29T03:25:43;99779.38;;;6.09;59.64
36664;BME280;53333;51.976;20.144;2022-12-29T03:28:21;99771.41;;;6.09;59.73
36664;BME280;53333;51.976;20.144;2022-12-29T03:30:55;99770.50;;;6.10;59.72
36664;BME280;53333;51.976;20.144;2022-12-29T03:33:32;99771.38;;;6.10;59.71
36664;BME280;53333;51.976;20.144;2022-12-29T03:36:11;99770.50;;;6.10;59.62
36664;BME280;53333;51.976;20.144;2022-12-29T03:38:48;99765.25;;;6.08;59.59
36664;BME280;53333;51.976;20.144;2022-12-29T03:41:26;99750.25;;;6.07;59.68
36664;BME280;53333;51.976;20.144;2022-12-29T03:44:04;99761.78;;;6.06;59.66
36664;BME280;53333;51.976;20.144;2022-12-29T03:46:38;99762.72;;;6.05;59.58
36664;BME280;53333;51.976;20.144;2022-12-29T03:49:12;99753.06;;;6.03;59.70
36664;BME280;53333;51.976;20.144;2022-12-29T03:51:47;99752.22;;;6.02;59.77
36664;BME280;53333;51.976;20.144;2022-12-29T03:54:23;99763.75;;;6.01;59.77
36664;BME280;53333;51.976;20.144;2022-12-29T03:56:57;99766.38;;;6.01;59.73
36664;BME280;53333;51.976;20.144;2022-12-29T03:59:45;99755.84;;;5.99;59.62
36664;BME280;53333;51.976;20.144;2022-12-29T04:02:18;99750.53;;;5.99;59.46
36664;BME280;53333;51.976;20.144;2022-12-29T04:04:52;99748.81;;;5.98;59.62
36664;BME280;53333;51.976;20.144;2022-12-29T04:07:26;99744.44;;;5.97;59.53
36664;BME280;53333;51.976;20.144;2022-12-29T04:10:01;99726.78;;;5.96;59.44
36664;BME280;53333;51.976;20.144;2022-12-29T04:12:38;99735.69;;;5.94;59.48
36664;BME280;53333;51.976;20.144;2022-12-29T04:15:13;99743.66;;;5.94;59.39
36664;BME280;53333;51.976;20.144;2022-12-29T04:17:46;99743.72;;;5.92;59.43
36664;BME280;53333;51.976;20.144;2022-12-29T04:20:19;99746.34;;;5.92;59.48
36664;BME280;53333;51.976;20.144;2022-12-29T04:23:12;99733.16;;;5.91;59.45
36664;BME280;53333;51.976;20.144;2022-12-29T04:25:46;99710.22;;;5.90;59.42
36664;BME280;53333;51.976;20.144;2022-12-29T04:28:20;99718.22;;;5.88;59.44
36664;BME280;53333;51.976;20.144;2022-12-29T04:30:58;99706.81;;;5.86;59.33
36664;BME280;53333;51.976;20.144;2022-12-29T04:33:44;99707.72;;;5.85;59.32
36664;BME280;53333;51.976;20.144;2022-12-29T04:36:17;99699.81;;;5.83;59.57
36664;BME280;53333;51.976;20.144;2022-12-29T04:38:52;99701.56;;;5.85;59.37
36664;BME280;53333;51.976;20.144;2022-12-29T04:41:25;99698.13;;;5.82;59.33
36664;BME280;53333;51.976;20.144;2022-12-29T04:43:58;99709.56;;;5.83;59.48
36664;BME280;53333;51.976;20.144;2022-12-29T04:47:10;99690.22;;;5.81;59.35
36664;BME280;53333;51.976;20.144;2022-12-29T04:50:09;99701.69;;;5.81;59.45
36664;BME280;53333;51.976;20.144;2022-12-29T04:52:47;99688.44;;;5.81;59.40
36664;BME280;53333;51.976;20.144;2022-12-29T04:55:22;99686.75;;;5.79;59.44
36664;BME280;53333;51.976;20.144;2022-12-29T04:57:55;99692.94;;;5.79;59.51
36664;BME280;53333;51.976;20.144;2022-12-29T05:00:28;99691.97;;;5.80;59.41
36664;BME280;53333;51.976;20.144;2022-12-29T05:03:01;99679.63;;;5.81;59.47
36664;BME280;53333;51.976;20.144;2022-12-29T05:05:35;99683.19;;;5.80;59.37
36664;BME280;53333;51.976;20.144;2022-12-29T05:08:08;99680.53;;;5.80;59.53
36664;BME280;53333;51.976;20.144;2022-12-29T05:10:45;99668.13;;;5.80;59.53
36664;BME280;53333;51.976;20.144;2022-12-29T05:13:21;99664.63;;;5.80;59.51
36664;BME280;53333;51.976;20.144;2022-12-29T05:15:54;99668.06;;;5.82;59.45
36664;BME280;53333;51.976;20.144;2022-12-29T05:18:28;99660.13;;;5.82;59.32
36664;BME280;53333;51.976;20.144;2022-12-29T05:21:03;99659.28;;;5.81;59.33
36664;BME280;53333;51.976;20.144;2022-12-29T05:23:36;99662.81;;;5.80;59.48
36664;BME280;53333;51.976;20.144;2022-12-29T05:26:11;99651.38;;;5.80;59.39
36664;BME280;53333;51.976;20.144;2022-12-29T05:28:59;99659.28;;;5.81;59.35
36664;BME280;53333;51.976;20.144;2022-12-29T05:31:32;99666.31;;;5.82;59.44
36664;BME280;53333;51.976;20.144;2022-12-29T05:34:10;99650.41;;;5.82;59.34
36664;BME280;53333;51.976;20.144;2022-12-29T05:36:44;99660.91;;;5.86;59.31
36664;BME280;53333;51.976;20.144;2022-12-29T05:39:18;99660.84;;;5.87;59.27
36664;BME280;53333;51.976;20.144;2022-12-29T05:41:59;99655.44;;;5.89;59.31
36664;BME280;53333;51.976;20.144;2022-12-29T05:44:55;99649.25;;;5.90;59.20
36664;BME280;53333;51.976;20.144;2022-12-29T05:47:49;99646.41;;;5.94;59.21
36664;BME280;53333;51.976;20.144;2022-12-29T05:50:36;99649.91;;;5.95;59.05
36664;BME280;53333;51.976;20.144;2022-12-29T05:53:20;99650.78;;;5.97;59.02
36664;BME280;53333;51.976;20.144;2022-12-29T05:55:53;99649.84;;;5.98;59.04
36664;BME280;53333;51.976;20.144;2022-12-29T05:58:27;99673.66;;;5.99;59.05
36664;BME280;53333;51.976;20.144;2022-12-29T06:01:00;99673.53;;;6.03;58.95
36664;BME280;53333;51.976;20.144;2022-12-29T06:03:34;99671.63;;;6.06;58.88
36664;BME280;53333;51.976;20.144;2022-12-29T06:06:07;99661.84;;;6.08;58.80
36664;BME280;53333;51.976;20.144;2022-12-29T06:08:41;99663.56;;;6.09;58.82
36664;BME280;53333;51.976;20.144;2022-12-29T06:11:14;99667.03;;;6.11;58.71
36664;BME280;53333;51.976;20.144;2022-12-29T06:13:55;99666.97;;;6.13;58.84
36664;BME280;53333;51.976;20.144;2022-12-29T06:16:28;99668.69;;;6.14;58.84
36664;BME280;53333;51.976;20.144;2022-12-29T06:19:04;99663.38;;;6.14;58.82
36664;BME280;53333;51.976;20.144;2022-12-29T06:21:37;99658.97;;;6.14;58.77
36664;BME280;53333;51.976;20.144;2022-12-29T06:24:11;99673.06;;;6.15;58.72
36664;BME280;53333;51.976;20.144;2022-12-29T06:26:44;99676.53;;;6.17;58.87
36664;BME280;53333;51.976;20.144;2022-12-29T06:29:18;99677.41;;;6.17;58.88
36664;BME280;53333;51.976;20.144;2022-12-29T06:31:52;99667.59;;;6.20;58.88
36664;BME280;53333;51.976;20.144;2022-12-29T06:34:27;99678.16;;;6.21;58.78
36664;BME280;53333;51.976;20.144;2022-12-29T06:37:01;99672.84;;;6.21;58.76
36664;BME280;53333;51.976;20.144;2022-12-29T06:39:34;99666.59;;;6.22;58.80
36664;BME280;53333;51.976;20.144;2022-12-29T06:42:14;99655.00;;;6.25;58.72
36664;BME280;53333;51.976;20.144;2022-12-29T06:44:59;99654.09;;;6.26;58.65
36664;BME280;53333;51.976;20.144;2022-12-29T06:47:32;99653.97;;;6.29;58.56
36664;BME280;53333;51.976;20.144;2022-12-29T06:50:06;99648.56;;;6.32;58.46
36664;BME280;53333;51.976;20.144;2022-12-29T06:52:39;99654.66;;;6.34;58.31
36664;BME280;53333;51.976;20.144;2022-12-29T06:55:13;99655.41;;;6.38;58.35
36664;BME280;53333;51.976;20.144;2022-12-29T06:57:46;99654.41;;;6.40;58.19
36664;BME280;53333;51.976;20.144;2022-12-29T07:00:20;99656.06;;;6.43;58.25
36664;BME280;53333;51.976;20.144;2022-12-29T07:02:57;99654.31;;;6.43;58.09
36664;BME280;53333;51.976;20.144;2022-12-29T07:05:30;99647.13;;;6.45;58.13
36664;BME280;53333;51.976;20.144;2022-12-29T07:08:04;99640.84;;;6.48;58.04
36664;BME280;53333;51.976;20.144;2022-12-29T07:10:37;99638.94;;;6.51;57.98
36664;BME280;53333;51.976;20.144;2022-12-29T07:13:10;99641.41;;;6.56;57.86
36664;BME280;53333;51.976;20.144;2022-12-29T07:15:45;99650.16;;;6.58;57.71
36664;BME280;53333;51.976;20.144;2022-12-29T07:18:18;99650.97;;;6.60;57.60
36664;BME280;53333;51.976;20.144;2022-12-29T07:20:51;99647.31;;;6.63;57.58
36664;BME280;53333;51.976;20.144;2022-12-29T07:23:24;99649.00;;;6.65;57.39
36664;BME280;53333;51.976;20.144;2022-12-29T07:26:00;99658.56;;;6.69;57.29
36664;BME280;53333;51.976;20.144;2022-12-29T07:28:34;99653.97;;;6.73;57.17
36664;BME280;53333;51.976;20.144;2022-12-29T07:31:14;99636.03;;;6.80;57.11
36664;BME280;53333;51.976;20.144;2022-12-29T07:33:48;99655.41;;;6.82;56.96
36664;BME280;53333;51.976;20.144;2022-12-29T07:36:21;99642.00;;;6.85;56.92
36664;BME280;53333;51.976;20.144;2022-12-29T07:39:00;99646.31;;;6.87;56.89
36664;BME280;53333;51.976;20.144;2022-12-29T07:41:33;99638.22;;;6.90;56.74
36664;BME280;53333;51.976;20.144;2022-12-29T07:44:08;99638.22;;;6.90;56.32
36664;BME280;53333;51.976;20.144;2022-12-29T07:47:01;99633.78;;;6.91;56.70
36664;BME280;53333;51.976;20.144;2022-12-29T07:49:34;99639.03;;;6.93;56.55
36664;BME280;53333;51.976;20.144;2022-12-29T07:52:07;99630.13;;;6.94;56.68
36664;BME280;53333;51.976;20.144;2022-12-29T07:54:40;99636.31;;;6.94;56.54
36664;BME280;53333;51.976;20.144;2022-12-29T07:57:13;99631.78;;;6.96;56.60
36664;BME280;53333;51.976;20.144;2022-12-29T07:59:46;99634.38;;;6.98;56.33
36664;BME280;53333;51.976;20.144;2022-12-29T08:02:20;99633.38;;;7.00;56.32
36664;BME280;53333;51.976;20.144;2022-12-29T08:04:54;99638.69;;;7.00;56.12
36664;BME280;53333;51.976;20.144;2022-12-29T08:07:27;99640.41;;;7.01;56.03
36664;BME280;53333;51.976;20.144;2022-12-29T08:10:00;99643.06;;;7.01;56.19
36664;BME280;53333;51.976;20.144;2022-12-29T08:12:33;99647.41;;;7.04;56.07
36664;BME280;53333;51.976;20.144;2022-12-29T08:15:08;99663.22;;;7.07;56.02
36664;BME280;53333;51.976;20.144;2022-12-29T08:17:43;99667.56;;;7.08;55.85
36664;BME280;53333;51.976;20.144;2022-12-29T08:20:16;99656.03;;;7.09;55.79
36664;BME280;53333;51.976;20.144;2022-12-29T08:22:49;99655.13;;;7.10;55.87
36664;BME280;53333;51.976;20.144;2022-12-29T08:25:23;99644.44;;;7.12;55.88
36664;BME280;53333;51.976;20.144;2022-12-29T08:27:56;99657.56;;;7.15;55.80
36664;BME280;53333;51.976;20.144;2022-12-29T08:30:29;99656.69;;;7.14;55.74
36664;BME280;53333;51.976;20.144;2022-12-29T08:33:03;99661.09;;;7.15;55.67
36664;BME280;53333;51.976;20.144;2022-12-29T08:35:36;99661.94;;;7.16;55.63
36664;BME280;53333;51.976;20.144;2022-12-29T08:38:09;99658.25;;;7.20;55.67
36664;BME280;53333;51.976;20.144;2022-12-29T08:40:43;99660.72;;;7.24;55.53
36664;BME280;53333;51.976;20.144;2022-12-29T08:43:16;99657.81;;;7.29;55.40
36664;BME280;53333;51.976;20.144;2022-12-29T08:45:49;99662.94;;;7.34;55.47
36664;BME280;53333;51.976;20.144;2022-12-29T08:48:24;99667.13;;;7.39;55.37
36664;BME280;53333;51.976;20.144;2022-12-29T08:50:57;99659.91;;;7.43;55.26
36664;BME280;53333;51.976;20.144;2022-12-29T08:53:30;99656.25;;;7.45;55.24
36664;BME280;53333;51.976;20.144;2022-12-29T08:56:05;99668.53;;;7.48;55.01
36664;BME280;53333;51.976;20.144;2022-12-29T08:58:49;99668.53;;;7.48;55.12
36664;BME280;53333;51.976;20.144;2022-12-29T09:01:23;99663.19;;;7.48;55.11
36664;BME280;53333;51.976;20.144;2022-12-29T09:03:57;99671.09;;;7.50;55.04
36664;BME280;53333;51.976;20.144;2022-12-29T09:06:48;99654.25;;;7.51;55.05
36664;BME280;53333;51.976;20.144;2022-12-29T09:09:22;99648.88;;;7.52;54.98
36664;BME280;53333;51.976;20.144;2022-12-29T09:11:55;99654.13;;;7.54;55.01
36664;BME280;53333;51.976;20.144;2022-12-29T09:14:28;99652.31;;;7.54;54.99
36664;BME280;53333;51.976;20.144;2022-12-29T09:17:01;99661.94;;;7.57;54.89
36664;BME280;53333;51.976;20.144;2022-12-29T09:19:53;99647.63;;;7.59;54.96
36664;BME280;53333;51.976;20.144;2022-12-29T09:22:26;99646.78;;;7.59;55.02
36664;BME280;53333;51.976;20.144;2022-12-29T09:24:59;99643.22;;;7.60;54.82
36664;BME280;53333;51.976;20.144;2022-12-29T09:27:32;99632.50;;;7.61;54.91
36664;BME280;53333;51.976;20.144;2022-12-29T09:30:07;99639.41;;;7.66;54.83
36664;BME280;53333;51.976;20.144;2022-12-29T09:32:41;99642.00;;;7.67;54.76
36664;BME280;53333;51.976;20.144;2022-12-29T09:35:18;99633.03;;;7.70;54.90
36664;BME280;53333;51.976;20.144;2022-12-29T09:37:51;99641.50;;;7.78;54.77
36664;BME280;53333;51.976;20.144;2022-12-29T09:40:26;99641.03;;;7.89;54.57
36664;BME280;53333;51.976;20.144;2022-12-29T09:43:11;99640.16;;;8.07;54.45
36664;BME280;53333;51.976;20.144;2022-12-29T09:45:53;99642.53;;;8.32;53.95
36664;BME280;53333;51.976;20.144;2022-12-29T09:48:31;99630.19;;;8.50;53.60
36664;BME280;53333;51.976;20.144;2022-12-29T09:51:10;99629.72;;;8.60;53.54
36664;BME280;53333;51.976;20.144;2022-12-29T09:53:49;99625.91;;;8.65;53.19
36664;BME280;53333;51.976;20.144;2022-12-29T09:56:25;99621.28;;;8.69;53.21
36664;BME280;53333;51.976;20.144;2022-12-29T09:59:04;99621.84;;;8.76;53.13
36664;BME280;53333;51.976;20.144;2022-12-29T10:01:44;99622.00;;;8.90;52.85
36664;BME280;53333;51.976;20.144;2022-12-29T10:04:19;99624.91;;;9.03;52.66
36664;BME280;53333;51.976;20.144;2022-12-29T10:06:58;99623.44;;;9.15;52.58
36664;BME280;53333;51.976;20.144;2022-12-29T10:09:58;99612.47;;;9.21;52.29
36664;BME280;53333;51.976;20.144;2022-12-29T10:12:48;99621.41;;;9.20;52.29
36664;BME280;53333;51.976;20.144;2022-12-29T10:15:38;99620.84;;;9.13;52.35
36664;BME280;53333;51.976;20.144;2022-12-29T10:18:40;99611.53;;;9.04;52.59
36664;BME280;53333;51.976;20.144;2022-12-29T10:21:24;99607.75;;;8.91;52.79
36664;BME280;53333;51.976;20.144;2022-12-29T10:24:04;99604.63;;;8.83;52.88
36664;BME280;53333;51.976;20.144;2022-12-29T10:26:41;99604.09;;;8.76;52.88
36664;BME280;53333;51.976;20.144;2022-12-29T10:29:16;99607.75;;;8.73;53.04
36664;BME280;53333;51.976;20.144;2022-12-29T10:31:57;99598.19;;;8.69;53.01
36664;BME280;53333;51.976;20.144;2022-12-29T10:34:36;99604.38;;;8.70;53.12
36664;BME280;53333;51.976;20.144;2022-12-29T10:37:17;99600.91;;;8.68;52.96
36664;BME280;53333;51.976;20.144;2022-12-29T10:40:11;99606.16;;;8.69;53.13
36664;BME280;53333;51.976;20.144;2022-12-29T10:42:50;99602.50;;;8.72;53.03
36664;BME280;53333;51.976;20.144;2022-12-29T10:45:29;99599.75;;;8.73;53.28
36664;BME280;53333;51.976;20.144;2022-12-29T10:48:06;99595.22;;;8.76;53.30
36664;BME280;53333;51.976;20.144;2022-12-29T10:50:42;99595.13;;;8.77;53.25
36664;BME280;53333;51.976;20.144;2022-12-29T10:53:20;99606.66;;;8.78;53.02
36664;BME280;53333;51.976;20.144;2022-12-29T10:55:58;99595.13;;;8.77;53.13
36664;BME280;53333;51.976;20.144;2022-12-29T10:58:33;99596.78;;;8.80;53.26
36664;BME280;53333;51.976;20.144;2022-12-29T11:01:08;99581.81;;;8.77;53.15
36664;BME280;53333;51.976;20.144;2022-12-29T11:03:50;99579.16;;;8.77;53.41
36664;BME280;53333;51.976;20.144;2022-12-29T11:06:28;99591.63;;;8.77;53.27
36664;BME280;53333;51.976;20.144;2022-12-29T11:09:09;99584.41;;;8.79;53.19
36664;BME280;53333;51.976;20.144;2022-12-29T11:11:46;99575.56;;;8.78;53.25
36664;BME280;53333;51.976;20.144;2022-12-29T11:14:21;99580.03;;;8.78;53.32
36664;BME280;53333;51.976;20.144;2022-12-29T11:17:00;99577.38;;;8.78;53.60
36664;BME280;53333;51.976;20.144;2022-12-29T11:19:33;99580.13;;;8.76;53.51
36664;BME280;53333;51.976;20.144;2022-12-29T11:22:21;99578.22;;;8.78;53.61
36664;BME280;53333;51.976;20.144;2022-12-29T11:25:06;99571.09;;;8.79;53.59
36664;BME280;53333;51.976;20.144;2022-12-29T11:27:55;99571.91;;;8.81;53.85
36664;BME280;53333;51.976;20.144;2022-12-29T11:30:29;99577.38;;;8.78;53.58
36664;BME280;53333;51.976;20.144;2022-12-29T11:33:03;99567.56;;;8.78;53.69
36664;BME280;53333;51.976;20.144;2022-12-29T11:35:40;99563.97;;;8.79;53.87
36664;BME280;53333;51.976;20.144;2022-12-29T11:38:19;99559.44;;;8.81;53.77
36664;BME280;53333;51.976;20.144;2022-12-29T11:40:53;99565.47;;;8.85;53.82
36664;BME280;53333;51.976;20.144;2022-12-29T11:43:31;99565.38;;;8.86;53.79
36664;BME280;53333;51.976;20.144;2022-12-29T11:46:06;99565.22;;;8.89;53.76
36664;BME280;53333;51.976;20.144;2022-12-29T11:48:39;99564.53;;;9.03;53.70
36664;BME280;53333;51.976;20.144;2022-12-29T11:51:21;99556.94;;;8.96;53.89
36664;BME280;53333;51.976;20.144;2022-12-29T11:53:57;99553.41;;;8.95;53.99
36664;BME280;53333;51.976;20.144;2022-12-29T11:56:34;99557.53;;;9.01;53.80
36664;BME280;53333;51.976;20.144;2022-12-29T11:59:24;99557.75;;;9.14;53.73
36664;BME280;53333;51.976;20.144;2022-12-29T12:02:24;99556.28;;;9.25;53.57
36664;BME280;53333;51.976;20.144;2022-12-29T12:05:24;99553.97;;;9.35;53.53
36664;BME280;53333;51.976;20.144;2022-12-29T12:08:07;99558.25;;;9.38;53.45
36664;BME280;53333;51.976;20.144;2022-12-29T12:10:55;99552.63;;;9.44;53.42
36664;BME280;53333;51.976;20.144;2022-12-29T12:13:34;99555.81;;;9.51;53.40
36664;BME280;53333;51.976;20.144;2022-12-29T12:16:14;99549.38;;;9.55;53.17
36664;BME280;53333;51.976;20.144;2022-12-29T12:18:58;99547.22;;;9.61;53.24
36664;BME280;53333;51.976;20.144;2022-12-29T12:21:38;99538.91;;;9.68;53.23
36664;BME280;53333;51.976;20.144;2022-12-29T12:24:39;99534.84;;;9.92;52.84
36664;BME280;53333;51.976;20.144;2022-12-29T12:27:19;99522.81;;;10.01;52.40
36664;BME280;53333;51.976;20.144;2022-12-29T12:29:59;99521.97;;;10.16;52.11
36664;BME280;53333;51.976;20.144;2022-12-29T12:32:45;99533.66;;;10.30;52.06
36664;BME280;53333;51.976;20.144;2022-12-29T12:35:25;99525.72;;;10.28;52.16
36664;BME280;53333;51.976;20.144;2022-12-29T12:38:18;99531.91;;;10.29;52.10
36664;BME280;53333;51.976;20.144;2022-12-29T12:41:00;99525.31;;;10.20;52.38
36664;BME280;53333;51.976;20.144;2022-12-29T12:43:40;99516.00;;;10.11;52.27
36664;BME280;53333;51.976;20.144;2022-12-29T12:46:31;99519.72;;;10.09;52.39
36664;BME280;53333;51.976;20.144;2022-12-29T12:49:30;99521.81;;;10.04;52.55
36664;BME280;53333;51.976;20.144;2022-12-29T12:52:16;99519.56;;;9.96;52.55
36664;BME280;53333;51.976;20.144;2022-12-29T12:54:56;99527.22;;;10.02;52.62
36664;BME280;53333;51.976;20.144;2022-12-29T12:57:46;99531.50;;;9.89;52.77
36664;BME280;53333;51.976;20.144;2022-12-29T13:00:24;99531.00;;;9.82;52.98
36664;BME280;53333;51.976;20.144;2022-12-29T13:03:09;99532.09;;;9.78;53.27
36664;BME280;53333;51.976;20.144;2022-12-29T13:05:57;99522.56;;;9.74;53.21
36664;BME280;53333;51.976;20.144;2022-12-29T13:08:54;99526.16;;;9.73;53.35
36664;BME280;53333;51.976;20.144;2022-12-29T13:11:38;99526.41;;;9.68;53.41
36664;BME280;53333;51.976;20.144;2022-12-29T13:14:25;99528.31;;;9.66;53.41
36664;BME280;53333;51.976;20.144;2022-12-29T13:17:04;99527.91;;;9.74;53.09
36664;BME280;53333;51.976;20.144;2022-12-29T13:19:43;99540.88;;;9.64;53.47
36664;BME280;53333;51.976;20.144;2022-12-29T13:22:25;99537.41;;;9.62;53.50
36664;BME280;53333;51.976;20.144;2022-12-29T13:25:19;99537.25;;;9.65;53.58
36664;BME280;53333;51.976;20.144;2022-12-29T13:28:02;99533.91;;;9.61;53.71
36664;BME280;53333;51.976;20.144;2022-12-29T13:30:43;99539.22;;;9.61;53.64
36664;BME280;53333;51.976;20.144;2022-12-29T13:33:24;99537.41;;;9.62;53.80
36664;BME280;53333;51.976;20.144;2022-12-29T13:36:05;99550.66;;;9.63;53.71
36664;BME280;53333;51.976;20.144;2022-12-29T13:38:43;99547.06;;;9.64;53.64
36664;BME280;53333;51.976;20.144;2022-12-29T13:41:25;99550.66;;;9.63;53.74
36664;BME280;53333;51.976;20.144;2022-12-29T13:44:02;99554.22;;;9.64;53.81
36664;BME280;53333;51.976;20.144;2022-12-29T13:46:39;99551.56;;;9.64;53.82
36664;BME280;53333;51.976;20.144;2022-12-29T13:49:16;99554.97;;;9.66;54.00
36664;BME280;53333;51.976;20.144;2022-12-29T13:51:54;99564.63;;;9.69;53.79
36664;BME280;53333;51.976;20.144;2022-12-29T13:54:37;99556.47;;;9.72;53.73
36664;BME280;53333;51.976;20.144;2022-12-29T13:57:18;99544.75;;;9.74;53.75
36664;BME280;53333;51.976;20.144;2022-12-29T14:00:02;99545.63;;;9.75;53.65
36664;BME280;53333;51.976;20.144;2022-12-29T14:02:50;99548.97;;;9.78;53.75